Kmdw taf.

Conditions at: KMDW (CHICAGO , IL, US) observed 0853 UTC 13 October 2023. Temperature: 14.4°C (58°F) Dewpoint: 9.4°C (49°F) [RH = 72%] Pressure (altimeter): 29.93 inches Hg (1013.6 mb) [Sea-level pressure: 1013.2 mb]

Kmdw taf. Things To Know About Kmdw taf.

May 1, 2023 · METAR Chicago Midway International Airport - KMDW/MDW. Chicago Midway International Airport is a large airport in Illinois, United States. The airport is located at latitude 41.78594 and longitude -87.75253. The airport has 5 runways: 13C/31C, 4R/22L, 4L/22R, 13L/31R and 13R/31L. Dec 31, 2022 · View the flying weather (METAR and TAF) for Chicago Midway International Airport, Chicago, United States ... METAR KMDW 312253Z 11006KT 10SM SCT065 BKN095 BKN120 ... 1180. (Refer to Figure 12.) The wind direction and velocity at KJFK is from: A - 180 degrees true at 4 knots. 1181. (Refer to Figure 12.) what are the current conditions for Chicago Midway Airport (KMDW)? A - sky 700 feet overcast, visibility 1-1/2 SM, rain. 1182. (Refer to Figure 15.)kmdw 141353z 05013g25kt 2 1/2sm -ra br bkn007 bkn011 ovc024 12/10 a2975 rmk ao2 pk wnd 04029/1343 slp072 p0003 t01170100 $ kmdw 141307z 1413/1518 05019g30kt 4sm -ra br bkn007 ovc012 tempo 1413/1415 1 1/2sm ra br fm141600 04019g30kt 5sm -shra sct007 ovc014 fm141900 03018g29kt p6sm -shra ovc020 fm142300 02014g23kt p6sm vcsh sct025 ovc035 fm150600 35012g19kt p6sm vcsh sct025 ovc035 tempo 1509/ ... Click image to open ZAU Weather Briefing. A color coded graphic which displays ceiling, visibility, precipitation, and wind data beginning with the latest observation and continuing out 12 hours using data from the latest TAF. Runway cross wind, head wind, and tail wind values based on the latest observation and the latest TAF (looking out 12 ...

Weather radar, wind and waves forecast for kiters, surfers, paragliders, pilots, sailors and anyone else. Worldwide animated weather map, with easy to use layers and precise spot forecast. METAR, TAF and NOTAMs for any airport in the World. SYNOP codes from weather stations and buoys. Forecast models ECMWF, GFS, NAM and NEMS

Data at: 1431 UTC 04 Oct 2023. KMDW 041353Z 20008KT 10SM FEW070 FEW090 SCT200 BKN250 23/14 A3000 RMK AO2 SLP150 T02280144. KMDW 041140Z 0412/0518 21013G22KT P6SM BKN100. FM050000 22008KT P6SM VCSH SCT035 BKN080. FM050700 23006KT 6SM -RA SCT025 OVC040. METAR Home. Plot. Data. Board. Info. IDs: Format: Raw Decoded Include TAF. Data at: 0542 UTC 09 Oct 2023. KMDW 090453Z 32004KT 10SM CLR 08/03 A2985 RMK AO2 SLP110 T00830028. KMDW 090353Z 32003KT 10SM FEW070 FEW160 09/03 A2986 RMK AO2 SLP114 T00890033.

KMDW - Chicago Midway International Airport (18 nm NW) Loc | Ops ... TAF; KGYY 7nm NE : 101724Z 1018/1118 27011G18KT P6SM BKN060 FM110000 25005KT P6SM SCT060 KMDWdata at: 2133 utc 24 sep 2023. kmdw 242053z 10009kt 10sm few100 bkn180 bkn250 24/15 a2999 rmk ao2 slp151 t02440150 56010 $ kmdw 242051z 2421/2524 10008kt p6sm few100 sct200 fm250300 09009kt p6sm vcsh sct080 bkn200 fm250600 11005kt p6sm few060 bkn100 fm252000 07009kt p6sm bkn090TAF KADW 120900Z 1209/1315 VRB03KT 9999 SCT100 SCT250 QNH2988INS : Forecast period: 0900 to 1800 UTC 12 October 2023 Forecast type: FROM: standard forecast or significant change Winds: variable direction winds at 3 MPH (3 knots; 1.5 m/s) Visibility: 6 or more miles (10 ...SPECI KMDW 121856Z 32005KT I 1/2SM RA OVCOO7 17/16 A2980 RMK RA835 METAR or SPECI identifies as normal or special. KMDW -4 letter identifier. I 21 856Z - Date and time {in UTC} issued. 32005KT - ... (TAF) of P6SM implies that the prevailing visibility is expected to be greater than: A) 6 nautical miles. B) 6 statute miles.

Need help? Read our tutorial on how to read METARs or read the parsed version below. Decoded METAR Decoded TAF Chicago Midway International Airport (KMDW) METAR …

Refer to Figure 17.) Determine the wind and temperature aloft forecast for DEN at 9,000 feet. 230° true at 21 knots, temperature -4 °C. When speaking to a flight service weather briefer, you should state. whether the flight is VFR or IFR. Refer to Figure 15.) The only cloud type forecast in TAF reports is.

Latest MDW TAF Impacts Board. KMDW: Aviation Forecast Discussion . MDW. Default Runway is 13/31 MDW Observations (ITWS missing when terminal doppler down): ASOS ITWS Oct 11, 2023 · METAR Chicago O'hare International Airport - KORD/ORD. Chicago O'hare International Airport is a large airport in Illinois, United States. The airport is located at latitude 41.97728 and longitude -87.90784. The airport has 8 runways: 10L/28R, 9R/27L, 9C/27C, 4R/22L, 4L/22R, 9L/27R, 10C/28C and 10R/28L. The ICAO airport code of this field is KORD. kmdw 141353z 05013g25kt 2 1/2sm -ra br bkn007 bkn011 ovc024 12/10 a2975 rmk ao2 pk wnd 04029/1343 slp072 p0003 t01170100 $ kmdw 141307z 1413/1518 05019g30kt 4sm -ra br bkn007 ovc012 tempo 1413/1415 1 1/2sm ra br fm141600 04019g30kt 5sm -shra sct007 ovc014 fm141900 03018g29kt p6sm -shra ovc020 fm142300 02014g23kt p6sm vcsh sct025 ovc035 fm150600 35012g19kt p6sm vcsh sct025 ovc035 tempo 1509/ ... 1180. (Refer to Figure 12.) The wind direction and velocity at KJFK is from: A - 180 degrees true at 4 knots. 1181. (Refer to Figure 12.) what are the current conditions for Chicago Midway Airport (KMDW)? A - sky 700 feet overcast, visibility 1-1/2 SM, rain. 1182. (Refer to Figure 15.)1 day ago · METAR KMSP 132353Z 06014G31KT 10SM -RA OVC015 09/07 A2991 RMK AO2 PK WND 05031/2349 SLP133 P0001 60057 T00940072 10094 20089 53018. Current weather is light rain.The wind is from direction 060° with a speed of 14 kt. Visibility is 10 mi. The ceiling, broken or more, is 1,500 ft. The temperature is 9 °C, with a wind chill of 4 °C.

Oct 10, 2023 · KMDW (CHICAGO , IL, US) Text: KMDW 101120Z 1012/1118 28006KT P6SM SCT060 BKN100 : Forecast period: 1200 to 1600 UTC 10 October 2023 Forecast type: FROM: standard forecast or significant change Winds: from the W (280 degrees) at 7 MPH (6 knots; 3.1 m/s) Visibility: 6 or more miles (10+ km) Ceiling: NOTE: LAMP data beyond the time of the TAF data is denoted as LAMP in Type and colored magenta. Raw TAF. KMDW 180540Z 1806/1912 34005KT P6SM SCT050. FM182000 11006KT P6SM SCT060. METAR Board. Radar Display. Forecast Discussion. For situational awareness. Not to be used for flight planning purposes. METAR, TAF or SPECI. A METAR (METeorological Aerodrome Report) is an observation and provides information about the current weather. Sometimes a METAR also gives a short-term forecast. A TAF (Terminal Area Forecast) provides a forecast for a longer period, for example 8, 24 or 36 hours. In addition to the METAR and TAF, there is also a SPECI ...TAMPA. FL. US. 27.97. -82.53. 2. ADDS Station Table (full) Page loaded: 07:48 UTC | 12:48 AM Pacific | 01:48 AM Mountain | 02:48 AM Central | 03:48 AM Eastern. Aviation Weather Center Homepage provides comprehensive user …In the METAR you will also find the air pressure at the mean sea level (QNH). This is calculated by recalculating the air pressure at terrain height (QFE) back to sea level. Air pressure can be expressed in inches of mercury (preceded by an A) or hectopascals (preceded by a Q). A2994 means air pressure of 29.94 inHg.TAFs help_outline. Translated. TAFs from this airport: KMDW TAF. Issued: 8:00 PM PDT. (in 3 hours). Today 8:00 PM - Tomorrow 7:00 AM PDT. Vis: >6 SM. Wind: 080 ...

KMDW - Chicago/Midway Intl, IL, US. Issued at 1451 UTC 23 Sep 2023. Updated at 1658 UTC 23 Sep 2023. Potential Impact: None: Slight: Moderate: High: Time <<24/17Z 24/18Z 24/19Z 24/20Z ... Raw TAF KMDW 231451Z 2315/2418 11008KT P6SM SCT100 BKN250 METAR Board Radar Display Forecast Discussion. For situational awareness.KMDW. MDW ATIS INFO A 0553Z. 19004KT 10SM CLR 22/14 A3013 (THREE ZERO ONE THREE) RMK AO2 SLP193 10250 20211 402940172 58003. RNAV Y RWY 22L APCH IN USE. LNDG AND DEPG RWYS 22L. NOTAMS... RWY 31R, 13L CLSD, RWY 4L, 22R CLSD, RWY 31L, 13R CLSD. AIRCRAFT SHOULD OPERATE MODE CEE ON ALL TWYS AND RWYS. CTC TWR 135.2 FOR ALL SERVICES. READBACK ALL RWY ...

This entry means. rain began at 1835Z. (fig 12) The wind direction and velocity at KJFK is from. 180 true at 4 knots. (fig 12) What are the current conditions depicted for Chicago Midway Airport (KMDW)? "Sky 700 feet overcast, visibility 1 « SM, rain". " (fig 12) What are the wind conditions at Wink, Texas (KINK)?" Oct 11, 2023 · TAF Dupage Airport. Dupage Airport is a midsized airport in Illinois, United States. The airport is located at latitude 41.90853 and longitude -88.24736. The airport has 4 runways: 2L/20R, 2R/20L, 10/28 and 15/33. The ICAO airport code of this field is KDPA. The local airport ID (FAA LID) of this airport is DPA. The airport's IATA code is DPA. Oct 11, 2023 · TAF for: KNZY (San Diego/North Isla, CA, US) issued at 2306 UTC 11 Oct 2023: Text: TAF COR KNZY 1123/1223 25008KT 9999 SCT025 QNH2962INS : Forecast period: 2300 UTC 11 October 2023 to 0300 UTC 12 October 2023: Forecast type: FROM: standard forecast or significant change: Winds: from the WSW (250 degrees) at 9 MPH (8 knots; 4.1 m/s) Visibility: Sep 22, 2023 · 10000 feet AGL. Clouds: few clouds at 5000 feet AGL, broken clouds at 10000 feet AGL. TAF for: KMDW (Chicago/Midway Intl, IL, US) issued at 1130 UTC 22 Sep 2023. Text: KMDW 221130Z 2212/2318 14005KT P6SM -SHRA SCT070 OVC100. Forecast period: 1200 to 1600 UTC 22 September 2023. Impacts TAF Board. TAF Home. Plot. Data. Board. Info. For situational awareness. Not to be used for flight planning purposes. IDs: KMDW - Chicago/Midway Intl, IL, US. Issued at 0251 UTC 13 Nov 2022. Updated at 0321 UTC 13 Nov 2022. Potential Impact: None: Slight: Moderate: High: Time 0253Z 13/04Z 13/05Z 13/06Z 13/07Z 13/08ZNOTE: LAMP data beyond the time of the TAF data is denoted as LAMP in Type and colored magenta. Raw TAF KMDW 180540Z 1806/1912 34005KT P6SM SCT050 FM182000 11006KT P6SM SCT060 Raw METAR KMDW 180753Z 30004KT 10SM FEW030 FEW060 13/11 A3003 RMK AO2 SLP165 T01280111 $ KMDW 180653Z 31005KT 10SM FEW030 FEW060 13/12 A3003 RMK AO2 SLP167 T01330117 $ KMDW 180553Z 32004KT 10SM FEW030 FEW060 13/12 A3003 ...BURLINGTON FLIGHT SERVICE STATION. NOTAMs facility: CEF (NOTAM-D service available) Attendance: SAT-SUN 0900-1700, ALL MON-FRI 0800-2300. Pattern altitude: RECTANGULAR TFC PAT: 1000 FT AGL LGT ACFT, 2000 FT AGL LRG/HVY ACFT; OVHD: 2500 FT AGL. Wind indicator: yes.

kmdw 011453z 32017g30kt 10sm bkn026 bkn033 ovc039 06/01 a2939 rmk ao2 pk wnd 31030/1444 slp956 60000 t00610011 55001 kmdw 011459z 0115/0218 31019g32kt 5sm -radz br ovc012 tempo 0117/0121 4sm radz br bkn008 …

NOTE: LAMP data beyond the time of the TAF data is denoted as LAMP in Type and colored magenta. Raw TAF KMDW 190540Z 1906/2012 16005KT P6SM SCT100 BKN250 FM191100 19008KT 6SM -SHRA SCT050 OVC080 TEMPO 1914/1918 4SM RA BR SCT030 BKN050 FM191900 15012G20KT P6SM SCT070 OVC100 FM200000 14008KT P6SM BKN080 FM200800 20008KT P6SM SCT080 BKN250 METAR Board Radar Display Forecast Discussion

Study with Quizlet and memorize flashcards containing terms like 1179. Which statement is true concerning ASOS/AWOS weather reporting systems?, 1180. (Refer to Figure 12.) The wind direction and velocity at KJFK is from:, 1181. (Refer to Figure 12.) what are the current conditions for Chicago Midway Airport (KMDW)? and more.TAMPA. FL. US. 27.97. -82.53. 2. ADDS Station Table (full) Page loaded: 07:48 UTC | 12:48 AM Pacific | 01:48 AM Mountain | 02:48 AM Central | 03:48 AM Eastern. Aviation Weather Center Homepage provides comprehensive user-friendly aviation weather Text products and graphics. KMDW - Chicago/Midway Intl, IL, US Issued at 2321 UTC 10 Oct 2023 Updated at 2349 UTC 10 Oct 2023 Potential Impact None Slight Moderate High NOTE: LAMP data beyond the time of the TAF data is denoted as LAMP in Type and colored magenta. Raw TAF KMDW 102321Z 1100/1206 25006KT P6SM SCT080 FM111800 23008KT P6SM VCSH SCT050 BKN100 NOTE: LAMP data beyond the time of the TAF data is denoted as LAMP in Type and colored magenta. Raw TAF. KMDW 292057Z 2921/3024 13007KT P6SM FEW030. Raw METAR. KMDW 292053Z 13006KT 10SM BKN030 23/16 A3011 RMK AO2 SLP190 T02330161 58004. KMDW 291953Z 10004KT 10SM FEW030 23/15 A3011 RMK AO2 SLP189 T02330150.Flight plan departing from KLGA - La Guardia, arriving at KMDW - Chicago Midway Intl. Distance 635 nm / 1,176 km. Download for FSX, X-Plane, PMDG, Infinite Flight, PDF or other products. Tags; Planner; Upload; Tools; Join. Sign in. Username / Email ... TAF. KLGA 210522Z 2106/2212 27010KT P6SM BKN250 FM211400 31009KT P6SM SCT060 …taf; kord : 122058z 1221/1324 08011kt p6sm bkn015 ovc100 fm122300 08012g18kt p6sm few025 bkn035 bkn100 fm131400 11014g23kt p6sm -shra few015 bkn035 fm131900 12014g23kt 5sm -ra sct008 bkn015 ovc025 tempo 1320/1324 2sm …METAR Chicago Midway International Airport - KMDW/MDW . Chicago Midway International Airport is a large airport in Illinois, United States. The airport is …Dec 31, 2022 · View the flying weather (METAR and TAF) for Chicago Midway International Airport, Chicago, United States ... METAR KMDW 312253Z 11006KT 10SM SCT065 BKN095 BKN120 ... Flight plan departing from KMDW - Chicago Midway Intl, arriving at KBMI - Central Illinois Rgnl. Distance 95 nm / 175 km. Download for FSX, X-Plane, PMDG, Infinite Flight, PDF or other products. ... TAF. KMDW 091453Z 0915/1018 30012G18KT P6SM FEW050 FEW250 FM092300 28006KT P6SM SCT200 FM101600 29012G18KT P6SM …Meteorological Aerodrome Reports (METAR), Terminal Area Forecasts (TAF), SIGMET and Notices to Airmen (NOTAM) of all airports in the world. Decoded and visual. Metar & TafE6B, NavLog Calculator, Weather Reports, METAR, TAF, Wind Components, Instrument Simulator, Weight and Balance, Pressure Altitude, Density Altitude, True Air Speed ...

Meteorological Aerodrome Reports (METAR), Terminal Area Forecasts (TAF), SIGMET and Notices to Airmen (NOTAM) of all airports in the world. Decoded and visual. Metar & Tafkfok 181353z 00000kt 10sm -ra ovc017 19/18 a2983 rmk ao2 cig 009v022 slp101 p0001 t01890183 no taf found for ... kmdw 181353z 36006kt 10sm few030 few065 17/12 a3007 rmk ao2 slp179 t01720122 ...METAR KMDW 200153Z 03009KT 9SM OVC055 15/07 A3005 RMK AO2 SLP170 T01500067 $. The wind is from direction 030° with a speed of 9 kt. Visibility is 9 mi. The ceiling, broken or more, is 5,500 ft. The temperature and wind chill are 15 °C.Instagram:https://instagram. capt jack's family buffet thomas drive menuscorpio astroslamjohn podesta paintingsaccident on route 6 cape cod today kmdw 131053z 09013g21kt 10sm few022 ovc065 14/10 a2993 rmk ao2 slp132 t01390100 $ kmdw 131123z 1312/1418 09013g21kt p6sm bkn070 bkn150 fm131500 10014g25kt p6sm -shra few015 bkn035 fm131900 11014g23kt 5sm -ra sct008 bkn015 ovc025 tempo 1320/1324 2sm ra br bkn008 fm140000 11014g23kt 3sm shra sct005 ovc008 prob30 1402/1406 1sm +tsra bkn005 ovc007cb fm141000 06013g24kt 5sm -shra ovc006 fm141400 ... pande grocers novihemingway sc funeral homes TAF for: KMDW (Chicago/Midway Intl, IL, US) issued at 2330 UTC 11 Oct 2023: Text: KMDW 112330Z 1200/1306 12007KT 6SM -SHRA SCT050 BKN070 : Forecast period: 0000 to 0300 UTC 12 October 2023: Forecast type: FROM: standard forecast or significant change: Winds: from the ESE (120 degrees) at 8 MPH (7 knots; 3.6 m/s) Visibility: 6 sm ( 10 km ...Welcome travelers to Chicago Midway International Airport, home of the world’s busiest square mile for incoming and departing airline flights. eso survey stonefalls METAR Chicago O'hare International Airport - KORD/ORD. Chicago O'hare International Airport is a large airport in Illinois, United States. The airport is located at latitude 41.97728 and longitude -87.90784. The airport has 8 runways: 10L/28R, 9R/27L, 9C/27C, 4R/22L, 4L/22R, 9L/27R, 10C/28C and 10R/28L. The ICAO airport code of this …Weather radar, wind and waves forecast for kiters, surfers, paragliders, pilots, sailors and anyone else. Worldwide animated weather map, with easy to use layers and precise spot forecast. METAR, TAF and NOTAMs for any airport in the World. SYNOP codes from weather stations and buoys. Forecast models ECMWF, GFS, NAM and NEMSMETAR KMDW 121856Z AUTO 32005KT 1 1/2SM +RABR OVC007 17/16 A2980 5,180 pies. 5,800 pies. 5,880 pies. ¿Cuál es el pronóstico de turbulencia en el siguiente TAF?